Terminal Aerodrome Forecast
Issued by NWS Quad Cities IA IL

Home | Current Version | Previous Version | Text Only | Print | Product List | Glossary On
Versions: 1 2 3 4 5 6 7 8 9 10 11 12 13 14 15 16 17 18 19
538
FTUS43 KDVN 141702 AAA
TAFMLI
TAF AMD
KMLI 141702Z 1417/1512 00000KT P6SM BKN022
     FM142300 27005KT P6SM OVC035=

USA.gov is the U.S. government's official web portal to all federal, state and local government web resources and services.